sensor_id;sensor_type;location;lat;lon;timestamp;P1;durP1;ratioP1;P2;durP2;ratioP2
75554;SDS011;66087;53.126;17.960;2024-01-15T00:00:44;10.90;;;3.90;;
75554;SDS011;66087;53.126;17.960;2024-01-15T00:03:29;14.80;;;5.20;;
75554;SDS011;66087;53.126;17.960;2024-01-15T00:05:55;11.70;;;5.00;;
75554;SDS011;66087;53.126;17.960;2024-01-15T00:08:21;15.10;;;6.60;;
75554;SDS011;66087;53.126;17.960;2024-01-15T00:10:47;18.10;;;7.50;;
75554;SDS011;66087;53.126;17.960;2024-01-15T00:13:13;13.20;;;4.70;;
75554;SDS011;66087;53.126;17.960;2024-01-15T00:15:39;12.50;;;5.00;;
75554;SDS011;66087;53.126;17.960;2024-01-15T00:18:05;12.00;;;4.60;;
75554;SDS011;66087;53.126;17.960;2024-01-15T00:20:31;14.60;;;5.90;;
75554;SDS011;66087;53.126;17.960;2024-01-15T00:22:57;13.60;;;5.60;;
75554;SDS011;66087;53.126;17.960;2024-01-15T00:25:23;12.40;;;4.90;;
75554;SDS011;66087;53.126;17.960;2024-01-15T00:27:49;12.50;;;5.10;;
75554;SDS011;66087;53.126;17.960;2024-01-15T00:30:15;13.20;;;5.30;;
75554;SDS011;66087;53.126;17.960;2024-01-15T00:32:41;12.00;;;4.90;;
75554;SDS011;66087;53.126;17.960;2024-01-15T00:35:07;11.10;;;4.90;;
75554;SDS011;66087;53.126;17.960;2024-01-15T00:37:33;11.70;;;5.10;;
75554;SDS011;66087;53.126;17.960;2024-01-15T00:39:59;13.10;;;5.30;;
75554;SDS011;66087;53.126;17.960;2024-01-15T00:42:25;11.80;;;5.60;;
75554;SDS011;66087;53.126;17.960;2024-01-15T00:44:51;11.50;;;4.80;;
75554;SDS011;66087;53.126;17.960;2024-01-15T00:47:18;8.60;;;3.40;;
75554;SDS011;66087;53.126;17.960;2024-01-15T00:49:44;10.60;;;4.60;;
75554;SDS011;66087;53.126;17.960;2024-01-15T00:52:10;9.70;;;4.30;;
75554;SDS011;66087;53.126;17.960;2024-01-15T00:54:36;12.70;;;5.50;;
75554;SDS011;66087;53.126;17.960;2024-01-15T00:57:03;12.50;;;5.70;;
75554;SDS011;66087;53.126;17.960;2024-01-15T00:59:29;11.40;;;5.50;;
75554;SDS011;66087;53.126;17.960;2024-01-15T01:01:55;13.40;;;5.60;;
75554;SDS011;66087;53.126;17.960;2024-01-15T01:04:21;13.00;;;5.70;;
75554;SDS011;66087;53.126;17.960;2024-01-15T01:06:47;10.90;;;5.40;;
75554;SDS011;66087;53.126;17.960;2024-01-15T01:09:13;11.50;;;4.80;;
75554;SDS011;66087;53.126;17.960;2024-01-15T01:11:39;11.80;;;4.70;;
75554;SDS011;66087;53.126;17.960;2024-01-15T01:14:05;13.50;;;5.90;;
75554;SDS011;66087;53.126;17.960;2024-01-15T01:16:31;14.20;;;6.40;;
75554;SDS011;66087;53.126;17.960;2024-01-15T01:19:05;10.70;;;3.90;;
75554;SDS011;66087;53.126;17.960;2024-01-15T01:21:31;13.70;;;6.10;;
75554;SDS011;66087;53.126;17.960;2024-01-15T01:23:57;9.60;;;4.20;;
75554;SDS011;66087;53.126;17.960;2024-01-15T01:26:24;12.30;;;4.40;;
75554;SDS011;66087;53.126;17.960;2024-01-15T01:28:49;9.60;;;4.10;;
75554;SDS011;66087;53.126;17.960;2024-01-15T01:31:16;12.90;;;5.00;;
75554;SDS011;66087;53.126;17.960;2024-01-15T01:33:42;11.20;;;4.80;;
75554;SDS011;66087;53.126;17.960;2024-01-15T01:36:08;12.60;;;5.50;;
75554;SDS011;66087;53.126;17.960;2024-01-15T01:38:36;13.90;;;5.50;;
75554;SDS011;66087;53.126;17.960;2024-01-15T01:41:02;12.10;;;4.50;;
75554;SDS011;66087;53.126;17.960;2024-01-15T01:43:28;11.00;;;4.40;;
75554;SDS011;66087;53.126;17.960;2024-01-15T01:45:54;11.20;;;4.80;;
75554;SDS011;66087;53.126;17.960;2024-01-15T01:48:21;11.70;;;4.10;;
75554;SDS011;66087;53.126;17.960;2024-01-15T01:50:48;10.90;;;4.30;;
75554;SDS011;66087;53.126;17.960;2024-01-15T01:53:13;11.10;;;4.50;;
75554;SDS011;66087;53.126;17.960;2024-01-15T01:55:40;10.60;;;4.40;;
75554;SDS011;66087;53.126;17.960;2024-01-15T01:58:06;10.10;;;4.10;;
75554;SDS011;66087;53.126;17.960;2024-01-15T02:00:32;9.50;;;3.90;;
75554;SDS011;66087;53.126;17.960;2024-01-15T02:02:59;13.40;;;3.90;;
75554;SDS011;66087;53.126;17.960;2024-01-15T02:05:25;10.80;;;4.20;;
75554;SDS011;66087;53.126;17.960;2024-01-15T02:07:52;11.00;;;4.40;;
75554;SDS011;66087;53.126;17.960;2024-01-15T02:10:18;9.50;;;3.70;;
75554;SDS011;66087;53.126;17.960;2024-01-15T02:12:44;10.20;;;4.30;;
75554;SDS011;66087;53.126;17.960;2024-01-15T02:15:10;9.10;;;3.90;;
75554;SDS011;66087;53.126;17.960;2024-01-15T02:17:55;10.70;;;4.30;;
75554;SDS011;66087;53.126;17.960;2024-01-15T02:20:21;9.50;;;3.80;;
75554;SDS011;66087;53.126;17.960;2024-01-15T02:22:47;11.50;;;5.20;;
75554;SDS011;66087;53.126;17.960;2024-01-15T02:25:13;7.30;;;3.10;;
75554;SDS011;66087;53.126;17.960;2024-01-15T02:27:39;9.60;;;3.50;;
75554;SDS011;66087;53.126;17.960;2024-01-15T02:30:05;8.40;;;3.40;;
75554;SDS011;66087;53.126;17.960;2024-01-15T02:32:32;8.10;;;3.60;;
75554;SDS011;66087;53.126;17.960;2024-01-15T02:34:58;9.50;;;3.90;;
75554;SDS011;66087;53.126;17.960;2024-01-15T02:37:24;10.80;;;3.30;;
75554;SDS011;66087;53.126;17.960;2024-01-15T02:39:49;9.50;;;3.30;;
75554;SDS011;66087;53.126;17.960;2024-01-15T02:42:16;9.30;;;4.20;;
75554;SDS011;66087;53.126;17.960;2024-01-15T02:44:42;7.30;;;3.20;;
75554;SDS011;66087;53.126;17.960;2024-01-15T02:47:08;8.40;;;3.50;;
75554;SDS011;66087;53.126;17.960;2024-01-15T02:49:34;8.60;;;3.40;;
75554;SDS011;66087;53.126;17.960;2024-01-15T02:51:59;10.00;;;3.90;;
75554;SDS011;66087;53.126;17.960;2024-01-15T02:54:25;7.30;;;3.10;;
75554;SDS011;66087;53.126;17.960;2024-01-15T02:56:51;10.60;;;4.40;;
75554;SDS011;66087;53.126;17.960;2024-01-15T02:59:17;9.00;;;4.10;;
75554;SDS011;66087;53.126;17.960;2024-01-15T03:01:43;9.30;;;3.50;;
75554;SDS011;66087;53.126;17.960;2024-01-15T03:04:09;10.70;;;3.90;;
75554;SDS011;66087;53.126;17.960;2024-01-15T03:06:35;10.70;;;3.90;;
75554;SDS011;66087;53.126;17.960;2024-01-15T03:09:00;11.50;;;4.70;;
75554;SDS011;66087;53.126;17.960;2024-01-15T03:11:26;13.10;;;5.30;;
75554;SDS011;66087;53.126;17.960;2024-01-15T03:13:52;10.30;;;4.00;;
75554;SDS011;66087;53.126;17.960;2024-01-15T03:16:18;9.50;;;4.10;;
75554;SDS011;66087;53.126;17.960;2024-01-15T03:18:45;12.60;;;5.20;;
75554;SDS011;66087;53.126;17.960;2024-01-15T03:21:16;10.60;;;3.90;;
75554;SDS011;66087;53.126;17.960;2024-01-15T03:23:41;11.90;;;5.10;;
75554;SDS011;66087;53.126;17.960;2024-01-15T03:26:08;10.50;;;4.30;;
75554;SDS011;66087;53.126;17.960;2024-01-15T03:28:33;11.90;;;5.20;;
75554;SDS011;66087;53.126;17.960;2024-01-15T03:30:59;12.40;;;5.60;;
75554;SDS011;66087;53.126;17.960;2024-01-15T03:33:26;14.60;;;6.30;;
75554;SDS011;66087;53.126;17.960;2024-01-15T03:35:52;13.60;;;5.70;;
75554;SDS011;66087;53.126;17.960;2024-01-15T03:38:18;12.30;;;4.50;;
75554;SDS011;66087;53.126;17.960;2024-01-15T03:40:44;9.00;;;3.10;;
75554;SDS011;66087;53.126;17.960;2024-01-15T03:43:10;13.80;;;6.00;;
75554;SDS011;66087;53.126;17.960;2024-01-15T03:45:36;10.40;;;4.70;;
75554;SDS011;66087;53.126;17.960;2024-01-15T03:48:02;13.20;;;5.20;;
75554;SDS011;66087;53.126;17.960;2024-01-15T03:50:28;13.90;;;6.00;;
75554;SDS011;66087;53.126;17.960;2024-01-15T03:52:54;10.50;;;5.00;;
75554;SDS011;66087;53.126;17.960;2024-01-15T03:55:20;12.70;;;5.00;;
75554;SDS011;66087;53.126;17.960;2024-01-15T03:57:46;13.80;;;5.10;;
75554;SDS011;66087;53.126;17.960;2024-01-15T04:00:12;11.80;;;4.10;;
75554;SDS011;66087;53.126;17.960;2024-01-15T04:02:38;13.10;;;5.50;;
75554;SDS011;66087;53.126;17.960;2024-01-15T04:05:04;12.20;;;5.20;;
75554;SDS011;66087;53.126;17.960;2024-01-15T04:07:30;11.70;;;4.80;;
75554;SDS011;66087;53.126;17.960;2024-01-15T04:09:56;12.00;;;4.80;;
75554;SDS011;66087;53.126;17.960;2024-01-15T04:12:21;14.90;;;5.90;;
75554;SDS011;66087;53.126;17.960;2024-01-15T04:14:47;13.10;;;5.50;;
75554;SDS011;66087;53.126;17.960;2024-01-15T04:17:13;11.00;;;4.80;;
75554;SDS011;66087;53.126;17.960;2024-01-15T04:19:39;11.80;;;4.80;;
75554;SDS011;66087;53.126;17.960;2024-01-15T04:22:05;12.40;;;4.30;;
75554;SDS011;66087;53.126;17.960;2024-01-15T04:24:31;11.70;;;4.00;;
75554;SDS011;66087;53.126;17.960;2024-01-15T04:26:57;9.10;;;3.80;;
75554;SDS011;66087;53.126;17.960;2024-01-15T04:29:23;10.30;;;3.30;;
75554;SDS011;66087;53.126;17.960;2024-01-15T04:31:49;7.40;;;2.80;;
75554;SDS011;66087;53.126;17.960;2024-01-15T04:34:14;8.30;;;3.60;;
75554;SDS011;66087;53.126;17.960;2024-01-15T04:36:40;6.70;;;2.30;;
75554;SDS011;66087;53.126;17.960;2024-01-15T04:39:07;7.50;;;2.30;;
75554;SDS011;66087;53.126;17.960;2024-01-15T04:41:33;7.00;;;2.20;;
75554;SDS011;66087;53.126;17.960;2024-01-15T04:44:00;5.00;;;1.90;;
75554;SDS011;66087;53.126;17.960;2024-01-15T04:46:27;5.50;;;1.70;;
75554;SDS011;66087;53.126;17.960;2024-01-15T04:48:52;6.10;;;2.30;;
75554;SDS011;66087;53.126;17.960;2024-01-15T04:51:18;5.50;;;1.90;;
75554;SDS011;66087;53.126;17.960;2024-01-15T04:53:44;9.00;;;3.00;;
75554;SDS011;66087;53.126;17.960;2024-01-15T04:56:10;8.10;;;2.30;;
75554;SDS011;66087;53.126;17.960;2024-01-15T04:58:36;6.00;;;2.10;;
75554;SDS011;66087;53.126;17.960;2024-01-15T05:01:02;7.60;;;2.50;;
75554;SDS011;66087;53.126;17.960;2024-01-15T05:03:28;6.50;;;2.50;;
75554;SDS011;66087;53.126;17.960;2024-01-15T05:05:54;12.70;;;3.30;;
75554;SDS011;66087;53.126;17.960;2024-01-15T05:08:20;8.50;;;2.10;;
75554;SDS011;66087;53.126;17.960;2024-01-15T05:10:47;8.60;;;2.20;;
75554;SDS011;66087;53.126;17.960;2024-01-15T05:13:13;10.40;;;2.20;;
75554;SDS011;66087;53.126;17.960;2024-01-15T05:15:39;8.90;;;2.70;;
75554;SDS011;66087;53.126;17.960;2024-01-15T05:18:05;5.60;;;1.10;;
75554;SDS011;66087;53.126;17.960;2024-01-15T05:20:31;7.20;;;2.00;;
75554;SDS011;66087;53.126;17.960;2024-01-15T05:22:57;6.60;;;1.60;;
75554;SDS011;66087;53.126;17.960;2024-01-15T05:25:23;5.60;;;1.40;;
75554;SDS011;66087;53.126;17.960;2024-01-15T05:27:49;5.30;;;1.40;;
75554;SDS011;66087;53.126;17.960;2024-01-15T05:30:15;5.80;;;1.40;;
75554;SDS011;66087;53.126;17.960;2024-01-15T05:32:42;8.10;;;1.60;;
75554;SDS011;66087;53.126;17.960;2024-01-15T05:35:07;4.20;;;1.10;;
75554;SDS011;66087;53.126;17.960;2024-01-15T05:37:33;4.80;;;0.90;;
75554;SDS011;66087;53.126;17.960;2024-01-15T05:39:59;5.30;;;1.20;;
75554;SDS011;66087;53.126;17.960;2024-01-15T05:42:26;7.80;;;1.40;;
75554;SDS011;66087;53.126;17.960;2024-01-15T05:44:52;5.20;;;1.10;;
75554;SDS011;66087;53.126;17.960;2024-01-15T05:47:18;3.70;;;0.90;;
75554;SDS011;66087;53.126;17.960;2024-01-15T05:49:44;5.20;;;0.80;;
75554;SDS011;66087;53.126;17.960;2024-01-15T05:52:10;5.90;;;1.00;;
75554;SDS011;66087;53.126;17.960;2024-01-15T05:54:36;6.40;;;1.20;;
75554;SDS011;66087;53.126;17.960;2024-01-15T05:57:02;6.10;;;1.40;;
75554;SDS011;66087;53.126;17.960;2024-01-15T05:59:28;3.30;;;0.60;;
75554;SDS011;66087;53.126;17.960;2024-01-15T06:01:57;4.80;;;1.00;;
75554;SDS011;66087;53.126;17.960;2024-01-15T06:04:23;4.10;;;1.00;;
75554;SDS011;66087;53.126;17.960;2024-01-15T06:06:49;2.90;;;0.90;;
75554;SDS011;66087;53.126;17.960;2024-01-15T06:09:15;3.90;;;1.30;;
75554;SDS011;66087;53.126;17.960;2024-01-15T06:11:41;5.40;;;1.40;;
75554;SDS011;66087;53.126;17.960;2024-01-15T06:14:06;5.20;;;1.70;;
75554;SDS011;66087;53.126;17.960;2024-01-15T06:16:32;5.20;;;1.40;;
75554;SDS011;66087;53.126;17.960;2024-01-15T06:18:58;6.20;;;1.50;;
75554;SDS011;66087;53.126;17.960;2024-01-15T06:21:24;4.20;;;1.20;;
75554;SDS011;66087;53.126;17.960;2024-01-15T06:23:51;4.50;;;1.10;;
75554;SDS011;66087;53.126;17.960;2024-01-15T06:26:17;7.70;;;1.70;;
75554;SDS011;66087;53.126;17.960;2024-01-15T06:28:43;4.80;;;1.50;;
75554;SDS011;66087;53.126;17.960;2024-01-15T06:31:09;4.90;;;1.40;;
75554;SDS011;66087;53.126;17.960;2024-01-15T06:33:34;8.20;;;2.60;;
75554;SDS011;66087;53.126;17.960;2024-01-15T06:36:00;8.00;;;2.40;;
75554;SDS011;66087;53.126;17.960;2024-01-15T06:38:26;9.20;;;2.20;;
75554;SDS011;66087;53.126;17.960;2024-01-15T06:40:52;11.10;;;2.50;;
75554;SDS011;66087;53.126;17.960;2024-01-15T06:43:19;8.00;;;1.80;;
75554;SDS011;66087;53.126;17.960;2024-01-15T06:45:46;6.50;;;2.00;;
75554;SDS011;66087;53.126;17.960;2024-01-15T06:48:13;7.10;;;2.40;;
75554;SDS011;66087;53.126;17.960;2024-01-15T06:50:42;7.60;;;2.20;;
75554;SDS011;66087;53.126;17.960;2024-01-15T06:53:08;8.10;;;2.70;;
75554;SDS011;66087;53.126;17.960;2024-01-15T06:55:34;8.60;;;3.40;;
75554;SDS011;66087;53.126;17.960;2024-01-15T06:58:00;6.70;;;2.30;;
75554;SDS011;66087;53.126;17.960;2024-01-15T07:00:27;8.30;;;2.60;;
75554;SDS011;66087;53.126;17.960;2024-01-15T07:02:58;6.30;;;2.20;;
75554;SDS011;66087;53.126;17.960;2024-01-15T07:05:24;9.80;;;2.70;;
75554;SDS011;66087;53.126;17.960;2024-01-15T07:07:50;6.70;;;2.10;;
75554;SDS011;66087;53.126;17.960;2024-01-15T07:10:16;9.20;;;2.30;;
75554;SDS011;66087;53.126;17.960;2024-01-15T07:12:43;8.30;;;2.80;;
75554;SDS011;66087;53.126;17.960;2024-01-15T07:15:09;8.20;;;2.50;;
75554;SDS011;66087;53.126;17.960;2024-01-15T07:17:35;7.10;;;2.20;;
75554;SDS011;66087;53.126;17.960;2024-01-15T07:20:01;7.10;;;2.40;;
75554;SDS011;66087;53.126;17.960;2024-01-15T07:22:27;8.40;;;2.70;;
75554;SDS011;66087;53.126;17.960;2024-01-15T07:24:53;8.30;;;2.80;;
75554;SDS011;66087;53.126;17.960;2024-01-15T07:27:20;9.70;;;2.50;;
75554;SDS011;66087;53.126;17.960;2024-01-15T07:29:47;9.30;;;3.50;;
75554;SDS011;66087;53.126;17.960;2024-01-15T07:32:14;8.20;;;2.30;;
75554;SDS011;66087;53.126;17.960;2024-01-15T07:34:40;8.60;;;2.90;;
75554;SDS011;66087;53.126;17.960;2024-01-15T07:37:06;12.70;;;3.80;;
75554;SDS011;66087;53.126;17.960;2024-01-15T07:39:33;8.80;;;2.90;;
75554;SDS011;66087;53.126;17.960;2024-01-15T07:42:00;10.40;;;3.40;;
75554;SDS011;66087;53.126;17.960;2024-01-15T07:44:26;8.30;;;3.10;;
75554;SDS011;66087;53.126;17.960;2024-01-15T07:46:55;10.60;;;3.80;;
75554;SDS011;66087;53.126;17.960;2024-01-15T07:49:22;7.40;;;2.50;;
75554;SDS011;66087;53.126;17.960;2024-01-15T07:51:51;7.50;;;2.50;;
75554;SDS011;66087;53.126;17.960;2024-01-15T07:54:17;10.20;;;3.30;;
75554;SDS011;66087;53.126;17.960;2024-01-15T07:56:53;5.50;;;2.40;;
75554;SDS011;66087;53.126;17.960;2024-01-15T07:59:19;9.30;;;3.50;;
75554;SDS011;66087;53.126;17.960;2024-01-15T08:01:45;10.80;;;3.70;;
75554;SDS011;66087;53.126;17.960;2024-01-15T08:04:11;6.80;;;2.40;;
75554;SDS011;66087;53.126;17.960;2024-01-15T08:06:38;7.50;;;2.70;;
75554;SDS011;66087;53.126;17.960;2024-01-15T08:09:04;7.10;;;2.20;;
75554;SDS011;66087;53.126;17.960;2024-01-15T08:11:31;7.00;;;2.50;;
75554;SDS011;66087;53.126;17.960;2024-01-15T08:13:58;9.50;;;2.50;;
75554;SDS011;66087;53.126;17.960;2024-01-15T08:16:24;9.10;;;3.10;;
75554;SDS011;66087;53.126;17.960;2024-01-15T08:18:50;13.30;;;3.30;;
75554;SDS011;66087;53.126;17.960;2024-01-15T08:21:16;12.30;;;3.80;;
75554;SDS011;66087;53.126;17.960;2024-01-15T08:23:42;10.30;;;4.60;;
75554;SDS011;66087;53.126;17.960;2024-01-15T08:26:08;15.80;;;5.30;;
75554;SDS011;66087;53.126;17.960;2024-01-15T08:28:34;11.70;;;4.20;;
75554;SDS011;66087;53.126;17.960;2024-01-15T08:31:00;13.10;;;5.30;;
75554;SDS011;66087;53.126;17.960;2024-01-15T08:33:26;12.30;;;5.00;;
75554;SDS011;66087;53.126;17.960;2024-01-15T08:35:54;11.90;;;4.30;;
75554;SDS011;66087;53.126;17.960;2024-01-15T08:38:22;10.40;;;3.80;;
75554;SDS011;66087;53.126;17.960;2024-01-15T08:40:48;8.20;;;2.80;;
75554;SDS011;66087;53.126;17.960;2024-01-15T08:43:15;9.10;;;3.50;;
75554;SDS011;66087;53.126;17.960;2024-01-15T08:45:42;8.80;;;2.60;;
75554;SDS011;66087;53.126;17.960;2024-01-15T08:48:08;6.70;;;2.20;;
75554;SDS011;66087;53.126;17.960;2024-01-15T08:50:38;7.30;;;2.70;;
75554;SDS011;66087;53.126;17.960;2024-01-15T08:53:12;6.20;;;2.20;;
75554;SDS011;66087;53.126;17.960;2024-01-15T08:55:38;9.60;;;3.10;;
75554;SDS011;66087;53.126;17.960;2024-01-15T08:58:07;8.60;;;2.60;;
75554;SDS011;66087;53.126;17.960;2024-01-15T09:00:35;8.90;;;2.90;;
75554;SDS011;66087;53.126;17.960;2024-01-15T09:03:03;13.00;;;4.40;;
75554;SDS011;66087;53.126;17.960;2024-01-15T09:05:29;11.50;;;3.50;;
75554;SDS011;66087;53.126;17.960;2024-01-15T09:07:57;9.30;;;3.40;;
75554;SDS011;66087;53.126;17.960;2024-01-15T09:10:30;6.50;;;2.30;;
75554;SDS011;66087;53.126;17.960;2024-01-15T09:12:56;9.80;;;4.50;;
75554;SDS011;66087;53.126;17.960;2024-01-15T09:15:24;8.90;;;2.60;;
75554;SDS011;66087;53.126;17.960;2024-01-15T09:17:51;10.00;;;3.20;;
75554;SDS011;66087;53.126;17.960;2024-01-15T09:20:17;6.70;;;2.80;;
75554;SDS011;66087;53.126;17.960;2024-01-15T09:22:44;8.20;;;2.80;;
75554;SDS011;66087;53.126;17.960;2024-01-15T09:25:11;7.10;;;2.80;;
75554;SDS011;66087;53.126;17.960;2024-01-15T09:27:37;9.40;;;2.70;;
75554;SDS011;66087;53.126;17.960;2024-01-15T09:30:05;8.30;;;2.30;;
75554;SDS011;66087;53.126;17.960;2024-01-15T09:32:35;7.50;;;2.10;;
75554;SDS011;66087;53.126;17.960;2024-01-15T09:35:07;9.10;;;3.30;;
75554;SDS011;66087;53.126;17.960;2024-01-15T09:37:34;7.90;;;2.90;;
75554;SDS011;66087;53.126;17.960;2024-01-15T09:40:12;7.80;;;2.90;;
75554;SDS011;66087;53.126;17.960;2024-01-15T09:42:39;8.50;;;3.00;;
75554;SDS011;66087;53.126;17.960;2024-01-15T09:45:07;9.00;;;2.80;;
75554;SDS011;66087;53.126;17.960;2024-01-15T09:47:35;5.50;;;2.10;;
75554;SDS011;66087;53.126;17.960;2024-01-15T09:50:02;7.80;;;2.00;;
75554;SDS011;66087;53.126;17.960;2024-01-15T09:52:30;7.00;;;2.80;;
75554;SDS011;66087;53.126;17.960;2024-01-15T09:55:02;7.70;;;2.80;;
75554;SDS011;66087;53.126;17.960;2024-01-15T09:57:31;8.20;;;2.60;;
75554;SDS011;66087;53.126;17.960;2024-01-15T09:59:57;8.40;;;2.60;;
75554;SDS011;66087;53.126;17.960;2024-01-15T10:05:52;8.00;;;2.50;;
75554;SDS011;66087;53.126;17.960;2024-01-15T10:08:20;10.80;;;3.50;;
75554;SDS011;66087;53.126;17.960;2024-01-15T10:11:16;6.70;;;2.50;;
75554;SDS011;66087;53.126;17.960;2024-01-15T10:13:43;7.00;;;3.00;;
75554;SDS011;66087;53.126;17.960;2024-01-15T10:16:15;8.30;;;2.90;;
75554;SDS011;66087;53.126;17.960;2024-01-15T10:18:47;7.80;;;2.60;;
75554;SDS011;66087;53.126;17.960;2024-01-15T10:21:19;6.80;;;2.00;;
75554;SDS011;66087;53.126;17.960;2024-01-15T10:23:55;7.20;;;2.00;;
75554;SDS011;66087;53.126;17.960;2024-01-15T10:26:24;5.70;;;1.90;;
75554;SDS011;66087;53.126;17.960;2024-01-15T10:29:04;5.50;;;2.00;;
75554;SDS011;66087;53.126;17.960;2024-01-15T10:31:43;7.40;;;2.20;;
75554;SDS011;66087;53.126;17.960;2024-01-15T10:34:10;7.50;;;2.10;;
75554;SDS011;66087;53.126;17.960;2024-01-15T10:36:39;5.50;;;2.00;;
75554;SDS011;66087;53.126;17.960;2024-01-15T10:39:10;6.10;;;1.50;;
75554;SDS011;66087;53.126;17.960;2024-01-15T10:41:37;5.90;;;1.90;;
75554;SDS011;66087;53.126;17.960;2024-01-15T10:44:03;6.20;;;1.90;;
75554;SDS011;66087;53.126;17.960;2024-01-15T10:46:30;4.80;;;1.30;;
75554;SDS011;66087;53.126;17.960;2024-01-15T10:48:56;5.00;;;1.60;;
75554;SDS011;66087;53.126;17.960;2024-01-15T10:51:22;6.90;;;1.60;;
75554;SDS011;66087;53.126;17.960;2024-01-15T10:53:49;8.50;;;2.20;;
75554;SDS011;66087;53.126;17.960;2024-01-15T10:56:16;4.30;;;1.30;;
75554;SDS011;66087;53.126;17.960;2024-01-15T10:58:43;7.70;;;2.30;;
75554;SDS011;66087;53.126;17.960;2024-01-15T11:01:14;6.20;;;2.20;;
75554;SDS011;66087;53.126;17.960;2024-01-15T11:03:40;6.90;;;2.60;;
75554;SDS011;66087;53.126;17.960;2024-01-15T11:08:44;9.30;;;2.50;;
75554;SDS011;66087;53.126;17.960;2024-01-15T11:11:16;7.80;;;2.40;;
75554;SDS011;66087;53.126;17.960;2024-01-15T11:13:43;5.90;;;1.70;;
75554;SDS011;66087;53.126;17.960;2024-01-15T11:16:10;7.90;;;2.80;;
75554;SDS011;66087;53.126;17.960;2024-01-15T11:18:40;8.60;;;2.70;;
75554;SDS011;66087;53.126;17.960;2024-01-15T11:21:19;7.00;;;2.50;;
75554;SDS011;66087;53.126;17.960;2024-01-15T11:23:50;7.70;;;2.80;;
75554;SDS011;66087;53.126;17.960;2024-01-15T11:28:52;6.00;;;1.70;;
75554;SDS011;66087;53.126;17.960;2024-01-15T11:31:18;11.80;;;4.20;;
75554;SDS011;66087;53.126;17.960;2024-01-15T11:33:48;10.30;;;3.70;;
75554;SDS011;66087;53.126;17.960;2024-01-15T11:36:15;5.90;;;1.80;;
75554;SDS011;66087;53.126;17.960;2024-01-15T11:38:41;6.10;;;1.70;;
75554;SDS011;66087;53.126;17.960;2024-01-15T11:41:15;4.60;;;1.80;;
75554;SDS011;66087;53.126;17.960;2024-01-15T11:43:42;7.10;;;2.10;;
75554;SDS011;66087;53.126;17.960;2024-01-15T11:46:11;5.20;;;1.30;;
75554;SDS011;66087;53.126;17.960;2024-01-15T11:48:42;4.70;;;1.20;;
75554;SDS011;66087;53.126;17.960;2024-01-15T11:51:11;4.30;;;1.30;;
75554;SDS011;66087;53.126;17.960;2024-01-15T11:53:41;4.50;;;1.40;;
75554;SDS011;66087;53.126;17.960;2024-01-15T11:56:15;7.50;;;1.50;;
75554;SDS011;66087;53.126;17.960;2024-01-15T11:58:47;6.60;;;1.80;;
75554;SDS011;66087;53.126;17.960;2024-01-15T12:01:13;3.30;;;0.70;;
75554;SDS011;66087;53.126;17.960;2024-01-15T12:03:39;6.00;;;1.40;;
75554;SDS011;66087;53.126;17.960;2024-01-15T12:06:06;4.20;;;1.40;;
75554;SDS011;66087;53.126;17.960;2024-01-15T12:08:33;5.20;;;0.70;;
75554;SDS011;66087;53.126;17.960;2024-01-15T12:10:58;3.50;;;1.10;;
75554;SDS011;66087;53.126;17.960;2024-01-15T12:13:27;3.30;;;0.90;;
75554;SDS011;66087;53.126;17.960;2024-01-15T12:15:54;8.80;;;2.70;;
75554;SDS011;66087;53.126;17.960;2024-01-15T12:18:21;8.40;;;2.50;;
75554;SDS011;66087;53.126;17.960;2024-01-15T12:21:05;9.60;;;3.00;;
75554;SDS011;66087;53.126;17.960;2024-01-15T12:23:46;11.20;;;3.40;;
75554;SDS011;66087;53.126;17.960;2024-01-15T12:26:16;7.30;;;2.10;;
75554;SDS011;66087;53.126;17.960;2024-01-15T12:29:01;8.70;;;3.30;;
75554;SDS011;66087;53.126;17.960;2024-01-15T12:31:31;9.80;;;2.40;;
75554;SDS011;66087;53.126;17.960;2024-01-15T12:40:45;8.70;;;2.00;;
75554;SDS011;66087;53.126;17.960;2024-01-15T12:43:33;9.30;;;2.80;;
75554;SDS011;66087;53.126;17.960;2024-01-15T12:46:19;8.50;;;2.90;;
75554;SDS011;66087;53.126;17.960;2024-01-15T12:48:55;7.90;;;2.00;;
75554;SDS011;66087;53.126;17.960;2024-01-15T12:51:26;8.30;;;2.00;;
75554;SDS011;66087;53.126;17.960;2024-01-15T12:54:00;7.70;;;2.50;;
75554;SDS011;66087;53.126;17.960;2024-01-15T12:56:27;6.00;;;1.70;;
75554;SDS011;66087;53.126;17.960;2024-01-15T12:59:03;4.60;;;1.40;;
75554;SDS011;66087;53.126;17.960;2024-01-15T13:01:53;4.30;;;1.10;;
75554;SDS011;66087;53.126;17.960;2024-01-15T13:04:40;3.40;;;0.90;;
75554;SDS011;66087;53.126;17.960;2024-01-15T13:07:11;2.60;;;0.70;;
75554;SDS011;66087;53.126;17.960;2024-01-15T13:09:56;4.60;;;1.10;;
75554;SDS011;66087;53.126;17.960;2024-01-15T13:12:30;5.60;;;1.80;;
75554;SDS011;66087;53.126;17.960;2024-01-15T13:15:15;5.30;;;1.60;;
75554;SDS011;66087;53.126;17.960;2024-01-15T13:17:44;6.60;;;1.80;;
75554;SDS011;66087;53.126;17.960;2024-01-15T13:20:20;5.40;;;1.80;;
75554;SDS011;66087;53.126;17.960;2024-01-15T13:23:12;4.70;;;1.30;;
75554;SDS011;66087;53.126;17.960;2024-01-15T13:25:47;7.40;;;2.00;;
75554;SDS011;66087;53.126;17.960;2024-01-15T13:28:33;7.60;;;2.30;;
75554;SDS011;66087;53.126;17.960;2024-01-15T13:31:15;3.60;;;1.00;;
75554;SDS011;66087;53.126;17.960;2024-01-15T13:33:44;4.60;;;1.00;;
75554;SDS011;66087;53.126;17.960;2024-01-15T13:36:31;5.10;;;1.40;;
75554;SDS011;66087;53.126;17.960;2024-01-15T13:39:10;4.30;;;1.30;;
75554;SDS011;66087;53.126;17.960;2024-01-15T13:41:53;8.90;;;1.60;;
75554;SDS011;66087;53.126;17.960;2024-01-15T13:44:28;5.40;;;1.50;;
75554;SDS011;66087;53.126;17.960;2024-01-15T13:47:00;5.30;;;1.40;;
75554;SDS011;66087;53.126;17.960;2024-01-15T13:49:41;5.20;;;1.70;;
75554;SDS011;66087;53.126;17.960;2024-01-15T13:52:14;7.50;;;1.80;;
75554;SDS011;66087;53.126;17.960;2024-01-15T13:54:44;9.90;;;3.10;;
75554;SDS011;66087;53.126;17.960;2024-01-15T13:57:52;6.00;;;1.20;;
75554;SDS011;66087;53.126;17.960;2024-01-15T14:00:19;6.00;;;1.80;;
75554;SDS011;66087;53.126;17.960;2024-01-15T14:02:51;7.70;;;2.10;;
75554;SDS011;66087;53.126;17.960;2024-01-15T14:05:36;7.40;;;2.10;;
75554;SDS011;66087;53.126;17.960;2024-01-15T14:08:02;5.70;;;1.80;;
75554;SDS011;66087;53.126;17.960;2024-01-15T14:10:34;5.40;;;1.50;;
75554;SDS011;66087;53.126;17.960;2024-01-15T14:13:31;9.80;;;2.30;;
75554;SDS011;66087;53.126;17.960;2024-01-15T14:16:21;8.70;;;2.40;;
75554;SDS011;66087;53.126;17.960;2024-01-15T14:18:48;8.00;;;2.20;;
75554;SDS011;66087;53.126;17.960;2024-01-15T14:21:19;6.60;;;2.10;;
75554;SDS011;66087;53.126;17.960;2024-01-15T14:24:01;6.40;;;1.80;;
75554;SDS011;66087;53.126;17.960;2024-01-15T14:26:42;8.00;;;1.90;;
75554;SDS011;66087;53.126;17.960;2024-01-15T14:29:16;6.20;;;2.10;;
75554;SDS011;66087;53.126;17.960;2024-01-15T14:32:15;5.20;;;1.70;;
75554;SDS011;66087;53.126;17.960;2024-01-15T14:35:08;5.50;;;1.50;;
75554;SDS011;66087;53.126;17.960;2024-01-15T14:37:51;11.20;;;3.70;;
75554;SDS011;66087;53.126;17.960;2024-01-15T14:40:17;6.10;;;2.30;;
75554;SDS011;66087;53.126;17.960;2024-01-15T14:42:46;9.10;;;3.10;;
75554;SDS011;66087;53.126;17.960;2024-01-15T14:45:12;8.10;;;3.10;;
75554;SDS011;66087;53.126;17.960;2024-01-15T14:47:44;8.50;;;2.30;;
75554;SDS011;66087;53.126;17.960;2024-01-15T14:50:16;8.70;;;3.50;;
75554;SDS011;66087;53.126;17.960;2024-01-15T14:52:42;6.30;;;1.70;;
75554;SDS011;66087;53.126;17.960;2024-01-15T14:55:29;7.10;;;2.00;;